sensor_id;sensor_type;location;lat;lon;timestamp;P1;durP1;ratioP1;P2;durP2;ratioP2
37903;SDS011;23738;50.422;18.758;2023-06-14T00:02:17;4.70;;;4.30;;
37903;SDS011;23738;50.422;18.758;2023-06-14T00:04:45;5.40;;;4.60;;
37903;SDS011;23738;50.422;18.758;2023-06-14T00:07:14;5.30;;;4.60;;
37903;SDS011;23738;50.422;18.758;2023-06-14T00:09:42;5.00;;;4.50;;
37903;SDS011;23738;50.422;18.758;2023-06-14T00:12:09;6.20;;;5.60;;
37903;SDS011;23738;50.422;18.758;2023-06-14T00:14:37;7.20;;;6.20;;
37903;SDS011;23738;50.422;18.758;2023-06-14T00:17:04;6.80;;;5.40;;
37903;SDS011;23738;50.422;18.758;2023-06-14T00:19:32;4.70;;;4.10;;
37903;SDS011;23738;50.422;18.758;2023-06-14T00:22:01;7.60;;;5.60;;
37903;SDS011;23738;50.422;18.758;2023-06-14T00:24:29;8.00;;;4.90;;
37903;SDS011;23738;50.422;18.758;2023-06-14T00:26:56;5.90;;;4.40;;
37903;SDS011;23738;50.422;18.758;2023-06-14T00:29:23;4.80;;;4.20;;
37903;SDS011;23738;50.422;18.758;2023-06-14T00:31:51;5.20;;;4.70;;
37903;SDS011;23738;50.422;18.758;2023-06-14T00:34:18;7.10;;;4.80;;
37903;SDS011;23738;50.422;18.758;2023-06-14T00:36:45;6.20;;;4.80;;
37903;SDS011;23738;50.422;18.758;2023-06-14T00:39:13;7.80;;;7.00;;
37903;SDS011;23738;50.422;18.758;2023-06-14T00:41:40;7.70;;;6.50;;
37903;SDS011;23738;50.422;18.758;2023-06-14T00:44:08;6.40;;;5.80;;
37903;SDS011;23738;50.422;18.758;2023-06-14T00:46:35;8.30;;;6.20;;
37903;SDS011;23738;50.422;18.758;2023-06-14T00:49:02;7.50;;;6.80;;
37903;SDS011;23738;50.422;18.758;2023-06-14T00:51:30;6.40;;;5.70;;
37903;SDS011;23738;50.422;18.758;2023-06-14T00:53:58;6.60;;;6.00;;
37903;SDS011;23738;50.422;18.758;2023-06-14T00:56:26;6.40;;;5.70;;
37903;SDS011;23738;50.422;18.758;2023-06-14T00:58:53;5.10;;;4.50;;
37903;SDS011;23738;50.422;18.758;2023-06-14T01:01:22;5.80;;;4.70;;
37903;SDS011;23738;50.422;18.758;2023-06-14T01:03:50;5.30;;;4.80;;
37903;SDS011;23738;50.422;18.758;2023-06-14T01:06:19;5.80;;;5.20;;
37903;SDS011;23738;50.422;18.758;2023-06-14T01:09:00;5.40;;;4.90;;
37903;SDS011;23738;50.422;18.758;2023-06-14T01:11:36;6.50;;;5.80;;
37903;SDS011;23738;50.422;18.758;2023-06-14T01:14:11;6.10;;;5.50;;
37903;SDS011;23738;50.422;18.758;2023-06-14T01:16:40;7.50;;;6.50;;
37903;SDS011;23738;50.422;18.758;2023-06-14T01:19:09;6.80;;;5.80;;
37903;SDS011;23738;50.422;18.758;2023-06-14T01:21:40;6.70;;;6.00;;
37903;SDS011;23738;50.422;18.758;2023-06-14T01:24:07;7.10;;;6.40;;
37903;SDS011;23738;50.422;18.758;2023-06-14T01:26:35;7.70;;;6.80;;
37903;SDS011;23738;50.422;18.758;2023-06-14T01:29:04;8.30;;;6.50;;
37903;SDS011;23738;50.422;18.758;2023-06-14T01:31:33;9.80;;;7.30;;
37903;SDS011;23738;50.422;18.758;2023-06-14T01:34:07;6.80;;;5.20;;
37903;SDS011;23738;50.422;18.758;2023-06-14T01:36:34;6.20;;;5.50;;
37903;SDS011;23738;50.422;18.758;2023-06-14T01:39:06;5.80;;;5.20;;
37903;SDS011;23738;50.422;18.758;2023-06-14T01:41:35;6.80;;;5.40;;
37903;SDS011;23738;50.422;18.758;2023-06-14T01:44:03;6.50;;;5.90;;
37903;SDS011;23738;50.422;18.758;2023-06-14T01:46:31;7.20;;;6.30;;
37903;SDS011;23738;50.422;18.758;2023-06-14T01:48:58;7.60;;;5.80;;
37903;SDS011;23738;50.422;18.758;2023-06-14T01:51:26;6.60;;;5.80;;
37903;SDS011;23738;50.422;18.758;2023-06-14T01:53:53;6.00;;;5.40;;
37903;SDS011;23738;50.422;18.758;2023-06-14T01:56:20;8.70;;;7.50;;
37903;SDS011;23738;50.422;18.758;2023-06-14T01:58:48;8.80;;;6.80;;
37903;SDS011;23738;50.422;18.758;2023-06-14T02:01:16;8.80;;;6.80;;
37903;SDS011;23738;50.422;18.758;2023-06-14T02:03:44;6.20;;;5.40;;
37903;SDS011;23738;50.422;18.758;2023-06-14T02:06:12;7.10;;;5.40;;
37903;SDS011;23738;50.422;18.758;2023-06-14T02:08:39;7.30;;;5.90;;
37903;SDS011;23738;50.422;18.758;2023-06-14T02:11:06;8.80;;;7.20;;
37903;SDS011;23738;50.422;18.758;2023-06-14T02:13:34;8.10;;;6.60;;
37903;SDS011;23738;50.422;18.758;2023-06-14T02:16:01;7.40;;;6.60;;
37903;SDS011;23738;50.422;18.758;2023-06-14T02:18:29;9.70;;;7.60;;
37903;SDS011;23738;50.422;18.758;2023-06-14T02:20:57;8.60;;;6.80;;
37903;SDS011;23738;50.422;18.758;2023-06-14T02:23:25;6.90;;;5.40;;
37903;SDS011;23738;50.422;18.758;2023-06-14T02:25:52;7.10;;;6.00;;
37903;SDS011;23738;50.422;18.758;2023-06-14T02:28:19;10.60;;;8.90;;
37903;SDS011;23738;50.422;18.758;2023-06-14T02:30:46;11.10;;;9.70;;
37903;SDS011;23738;50.422;18.758;2023-06-14T02:33:14;12.70;;;10.60;;
37903;SDS011;23738;50.422;18.758;2023-06-14T02:35:41;10.50;;;8.90;;
37903;SDS011;23738;50.422;18.758;2023-06-14T02:38:08;14.20;;;9.90;;
37903;SDS011;23738;50.422;18.758;2023-06-14T02:40:35;11.20;;;9.00;;
37903;SDS011;23738;50.422;18.758;2023-06-14T02:43:03;17.50;;;9.10;;
37903;SDS011;23738;50.422;18.758;2023-06-14T02:45:30;9.40;;;7.70;;
37903;SDS011;23738;50.422;18.758;2023-06-14T02:47:58;10.50;;;8.30;;
37903;SDS011;23738;50.422;18.758;2023-06-14T02:50:25;11.00;;;8.40;;
37903;SDS011;23738;50.422;18.758;2023-06-14T02:52:54;11.00;;;8.70;;
37903;SDS011;23738;50.422;18.758;2023-06-14T02:55:22;13.90;;;10.00;;
37903;SDS011;23738;50.422;18.758;2023-06-14T02:57:50;12.50;;;9.20;;
37903;SDS011;23738;50.422;18.758;2023-06-14T03:00:19;12.90;;;8.80;;
37903;SDS011;23738;50.422;18.758;2023-06-14T03:02:46;9.30;;;7.50;;
37903;SDS011;23738;50.422;18.758;2023-06-14T03:05:14;10.30;;;7.70;;
37903;SDS011;23738;50.422;18.758;2023-06-14T03:07:42;15.40;;;9.50;;
37903;SDS011;23738;50.422;18.758;2023-06-14T03:10:11;15.60;;;9.30;;
37903;SDS011;23738;50.422;18.758;2023-06-14T03:12:39;15.30;;;10.30;;
37903;SDS011;23738;50.422;18.758;2023-06-14T03:15:07;16.10;;;10.00;;
37903;SDS011;23738;50.422;18.758;2023-06-14T03:17:36;16.30;;;10.00;;
37903;SDS011;23738;50.422;18.758;2023-06-14T03:20:05;15.60;;;10.10;;
37903;SDS011;23738;50.422;18.758;2023-06-14T03:22:34;15.50;;;10.00;;
37903;SDS011;23738;50.422;18.758;2023-06-14T03:25:02;16.70;;;10.00;;
37903;SDS011;23738;50.422;18.758;2023-06-14T03:27:30;16.50;;;10.90;;
37903;SDS011;23738;50.422;18.758;2023-06-14T03:29:57;17.30;;;10.40;;
37903;SDS011;23738;50.422;18.758;2023-06-14T03:32:24;15.40;;;9.20;;
37903;SDS011;23738;50.422;18.758;2023-06-14T03:34:52;11.10;;;8.50;;
37903;SDS011;23738;50.422;18.758;2023-06-14T03:37:19;10.20;;;8.30;;
37903;SDS011;23738;50.422;18.758;2023-06-14T03:39:46;15.10;;;9.70;;
37903;SDS011;23738;50.422;18.758;2023-06-14T03:42:14;14.30;;;9.20;;
37903;SDS011;23738;50.422;18.758;2023-06-14T03:44:41;15.20;;;10.50;;
37903;SDS011;23738;50.422;18.758;2023-06-14T03:47:08;13.50;;;11.00;;
37903;SDS011;23738;50.422;18.758;2023-06-14T03:49:36;11.10;;;7.70;;
37903;SDS011;23738;50.422;18.758;2023-06-14T03:52:03;9.20;;;7.80;;
37903;SDS011;23738;50.422;18.758;2023-06-14T03:54:31;9.20;;;7.90;;
37903;SDS011;23738;50.422;18.758;2023-06-14T03:56:58;10.40;;;9.00;;
37903;SDS011;23738;50.422;18.758;2023-06-14T03:59:26;11.20;;;10.00;;
37903;SDS011;23738;50.422;18.758;2023-06-14T04:01:54;12.50;;;10.70;;
37903;SDS011;23738;50.422;18.758;2023-06-14T04:04:21;12.00;;;9.80;;
37903;SDS011;23738;50.422;18.758;2023-06-14T04:06:55;10.90;;;9.50;;
37903;SDS011;23738;50.422;18.758;2023-06-14T04:09:24;17.40;;;9.20;;
37903;SDS011;23738;50.422;18.758;2023-06-14T04:11:52;14.10;;;8.60;;
37903;SDS011;23738;50.422;18.758;2023-06-14T04:14:19;16.50;;;10.20;;
37903;SDS011;23738;50.422;18.758;2023-06-14T04:16:47;16.30;;;10.20;;
37903;SDS011;23738;50.422;18.758;2023-06-14T04:19:15;16.00;;;11.80;;
37903;SDS011;23738;50.422;18.758;2023-06-14T04:21:42;19.70;;;13.50;;
37903;SDS011;23738;50.422;18.758;2023-06-14T04:24:10;20.00;;;12.10;;
37903;SDS011;23738;50.422;18.758;2023-06-14T04:26:39;16.00;;;10.60;;
37903;SDS011;23738;50.422;18.758;2023-06-14T04:29:07;20.70;;;12.40;;
37903;SDS011;23738;50.422;18.758;2023-06-14T04:31:34;17.90;;;11.60;;
37903;SDS011;23738;50.422;18.758;2023-06-14T04:34:03;16.90;;;11.50;;
37903;SDS011;23738;50.422;18.758;2023-06-14T04:36:31;26.10;;;13.40;;
37903;SDS011;23738;50.422;18.758;2023-06-14T04:39:00;17.10;;;11.00;;
37903;SDS011;23738;50.422;18.758;2023-06-14T04:41:30;15.50;;;10.10;;
37903;SDS011;23738;50.422;18.758;2023-06-14T04:43:57;13.80;;;9.90;;
37903;SDS011;23738;50.422;18.758;2023-06-14T04:46:27;11.20;;;10.00;;
37903;SDS011;23738;50.422;18.758;2023-06-14T04:48:54;11.30;;;10.00;;
37903;SDS011;23738;50.422;18.758;2023-06-14T04:51:22;17.30;;;11.80;;
37903;SDS011;23738;50.422;18.758;2023-06-14T04:53:55;13.60;;;10.80;;
37903;SDS011;23738;50.422;18.758;2023-06-14T04:56:24;12.80;;;9.50;;
37903;SDS011;23738;50.422;18.758;2023-06-14T04:58:51;11.00;;;9.60;;
37903;SDS011;23738;50.422;18.758;2023-06-14T05:01:19;12.50;;;10.30;;
37903;SDS011;23738;50.422;18.758;2023-06-14T05:03:47;13.90;;;11.80;;
37903;SDS011;23738;50.422;18.758;2023-06-14T05:06:15;15.80;;;11.50;;
37903;SDS011;23738;50.422;18.758;2023-06-14T05:08:43;18.80;;;12.80;;
37903;SDS011;23738;50.422;18.758;2023-06-14T05:11:11;20.70;;;13.30;;
37903;SDS011;23738;50.422;18.758;2023-06-14T05:13:38;18.50;;;13.20;;
37903;SDS011;23738;50.422;18.758;2023-06-14T05:16:06;14.60;;;11.10;;
37903;SDS011;23738;50.422;18.758;2023-06-14T05:18:34;13.30;;;11.90;;
37903;SDS011;23738;50.422;18.758;2023-06-14T05:21:01;13.10;;;11.30;;
37903;SDS011;23738;50.422;18.758;2023-06-14T05:23:29;18.90;;;12.90;;
37903;SDS011;23738;50.422;18.758;2023-06-14T05:25:56;14.90;;;13.40;;
37903;SDS011;23738;50.422;18.758;2023-06-14T05:28:24;14.30;;;12.80;;
37903;SDS011;23738;50.422;18.758;2023-06-14T05:30:51;12.40;;;11.30;;
37903;SDS011;23738;50.422;18.758;2023-06-14T05:33:18;14.00;;;11.20;;
37903;SDS011;23738;50.422;18.758;2023-06-14T05:35:47;12.00;;;10.90;;
37903;SDS011;23738;50.422;18.758;2023-06-14T05:38:14;13.40;;;11.80;;
37903;SDS011;23738;50.422;18.758;2023-06-14T05:40:42;13.60;;;12.20;;
37903;SDS011;23738;50.422;18.758;2023-06-14T05:43:09;13.60;;;12.30;;
37903;SDS011;23738;50.422;18.758;2023-06-14T05:45:36;11.30;;;10.10;;
37903;SDS011;23738;50.422;18.758;2023-06-14T05:48:04;10.20;;;9.30;;
37903;SDS011;23738;50.422;18.758;2023-06-14T05:50:31;10.10;;;9.20;;
37903;SDS011;23738;50.422;18.758;2023-06-14T05:52:59;10.10;;;9.20;;
37903;SDS011;23738;50.422;18.758;2023-06-14T05:55:26;10.60;;;9.20;;
37903;SDS011;23738;50.422;18.758;2023-06-14T05:57:54;10.30;;;9.20;;
37903;SDS011;23738;50.422;18.758;2023-06-14T06:00:21;11.50;;;10.10;;
37903;SDS011;23738;50.422;18.758;2023-06-14T06:02:48;9.40;;;8.50;;
37903;SDS011;23738;50.422;18.758;2023-06-14T06:05:16;9.30;;;8.40;;
37903;SDS011;23738;50.422;18.758;2023-06-14T06:07:43;9.10;;;8.20;;
37903;SDS011;23738;50.422;18.758;2023-06-14T06:10:11;10.10;;;9.20;;
37903;SDS011;23738;50.422;18.758;2023-06-14T06:12:38;9.20;;;8.40;;
37903;SDS011;23738;50.422;18.758;2023-06-14T06:15:07;9.50;;;8.60;;
37903;SDS011;23738;50.422;18.758;2023-06-14T06:17:37;8.90;;;8.10;;
37903;SDS011;23738;50.422;18.758;2023-06-14T06:20:05;8.70;;;7.90;;
37903;SDS011;23738;50.422;18.758;2023-06-14T06:22:35;7.10;;;6.40;;
37903;SDS011;23738;50.422;18.758;2023-06-14T06:25:02;8.10;;;7.40;;
37903;SDS011;23738;50.422;18.758;2023-06-14T06:27:30;8.70;;;7.80;;
37903;SDS011;23738;50.422;18.758;2023-06-14T06:29:58;8.00;;;7.30;;
37903;SDS011;23738;50.422;18.758;2023-06-14T06:32:25;8.90;;;7.30;;
37903;SDS011;23738;50.422;18.758;2023-06-14T06:34:53;8.60;;;8.00;;
37903;SDS011;23738;50.422;18.758;2023-06-14T06:37:20;8.50;;;7.70;;
37903;SDS011;23738;50.422;18.758;2023-06-14T06:39:47;7.50;;;6.70;;
37903;SDS011;23738;50.422;18.758;2023-06-14T06:42:14;8.60;;;6.30;;
37903;SDS011;23738;50.422;18.758;2023-06-14T06:44:42;7.80;;;7.00;;
37903;SDS011;23738;50.422;18.758;2023-06-14T06:47:09;7.30;;;6.70;;
37903;SDS011;23738;50.422;18.758;2023-06-14T06:49:37;7.80;;;7.00;;
37903;SDS011;23738;50.422;18.758;2023-06-14T06:52:05;7.40;;;6.80;;
37903;SDS011;23738;50.422;18.758;2023-06-14T06:54:33;7.10;;;6.50;;
37903;SDS011;23738;50.422;18.758;2023-06-14T06:57:01;7.50;;;5.50;;
37903;SDS011;23738;50.422;18.758;2023-06-14T06:59:28;7.40;;;6.60;;
37903;SDS011;23738;50.422;18.758;2023-06-14T07:01:56;7.60;;;6.90;;
37903;SDS011;23738;50.422;18.758;2023-06-14T07:04:23;8.50;;;7.60;;
37903;SDS011;23738;50.422;18.758;2023-06-14T07:06:50;7.00;;;6.40;;
37903;SDS011;23738;50.422;18.758;2023-06-14T07:09:17;7.30;;;6.60;;
37903;SDS011;23738;50.422;18.758;2023-06-14T07:11:46;6.00;;;5.50;;
37903;SDS011;23738;50.422;18.758;2023-06-14T07:14:13;5.90;;;5.20;;
37903;SDS011;23738;50.422;18.758;2023-06-14T07:16:41;11.20;;;6.30;;
37903;SDS011;23738;50.422;18.758;2023-06-14T07:19:08;8.00;;;5.50;;
37903;SDS011;23738;50.422;18.758;2023-06-14T07:21:36;6.40;;;5.80;;
37903;SDS011;23738;50.422;18.758;2023-06-14T07:24:04;5.20;;;4.80;;
37903;SDS011;23738;50.422;18.758;2023-06-14T07:26:33;5.30;;;4.80;;
37903;SDS011;23738;50.422;18.758;2023-06-14T07:29:01;6.90;;;5.20;;
37903;SDS011;23738;50.422;18.758;2023-06-14T07:31:28;4.90;;;4.40;;
37903;SDS011;23738;50.422;18.758;2023-06-14T07:33:56;5.90;;;5.40;;
37903;SDS011;23738;50.422;18.758;2023-06-14T07:36:23;5.90;;;5.20;;
37903;SDS011;23738;50.422;18.758;2023-06-14T07:38:51;6.00;;;5.40;;
37903;SDS011;23738;50.422;18.758;2023-06-14T07:41:18;8.20;;;5.10;;
37903;SDS011;23738;50.422;18.758;2023-06-14T07:43:45;4.60;;;4.10;;
37903;SDS011;23738;50.422;18.758;2023-06-14T07:46:12;4.40;;;4.00;;
37903;SDS011;23738;50.422;18.758;2023-06-14T07:48:40;4.40;;;4.00;;
37903;SDS011;23738;50.422;18.758;2023-06-14T07:51:07;5.10;;;3.90;;
37903;SDS011;23738;50.422;18.758;2023-06-14T07:53:35;5.20;;;3.90;;
37903;SDS011;23738;50.422;18.758;2023-06-14T07:56:02;7.00;;;4.10;;
37903;SDS011;23738;50.422;18.758;2023-06-14T07:58:30;4.60;;;4.20;;
37903;SDS011;23738;50.422;18.758;2023-06-14T08:00:57;3.70;;;3.40;;
37903;SDS011;23738;50.422;18.758;2023-06-14T08:03:27;3.40;;;3.10;;
37903;SDS011;23738;50.422;18.758;2023-06-14T08:05:55;3.60;;;3.30;;
37903;SDS011;23738;50.422;18.758;2023-06-14T08:08:23;4.90;;;3.50;;
37903;SDS011;23738;50.422;18.758;2023-06-14T08:10:50;3.70;;;3.40;;
37903;SDS011;23738;50.422;18.758;2023-06-14T08:13:17;2.70;;;2.50;;
37903;SDS011;23738;50.422;18.758;2023-06-14T08:15:45;2.90;;;2.70;;
37903;SDS011;23738;50.422;18.758;2023-06-14T08:18:12;2.90;;;2.70;;
37903;SDS011;23738;50.422;18.758;2023-06-14T08:20:40;2.80;;;2.60;;
37903;SDS011;23738;50.422;18.758;2023-06-14T08:23:08;3.40;;;2.90;;
37903;SDS011;23738;50.422;18.758;2023-06-14T08:25:35;3.20;;;2.20;;
37903;SDS011;23738;50.422;18.758;2023-06-14T08:28:02;2.60;;;2.40;;
37903;SDS011;23738;50.422;18.758;2023-06-14T08:30:30;2.40;;;2.20;;
37903;SDS011;23738;50.422;18.758;2023-06-14T08:32:58;3.60;;;3.00;;
37903;SDS011;23738;50.422;18.758;2023-06-14T08:35:25;2.70;;;2.20;;
37903;SDS011;23738;50.422;18.758;2023-06-14T08:37:52;2.80;;;2.60;;
37903;SDS011;23738;50.422;18.758;2023-06-14T08:40:20;2.70;;;2.30;;
37903;SDS011;23738;50.422;18.758;2023-06-14T08:42:50;3.00;;;2.10;;
37903;SDS011;23738;50.422;18.758;2023-06-14T08:45:18;2.60;;;2.40;;
37903;SDS011;23738;50.422;18.758;2023-06-14T08:47:47;3.10;;;2.80;;
37903;SDS011;23738;50.422;18.758;2023-06-14T08:50:19;2.60;;;2.40;;
37903;SDS011;23738;50.422;18.758;2023-06-14T08:52:51;3.10;;;2.80;;
37903;SDS011;23738;50.422;18.758;2023-06-14T08:55:20;3.10;;;2.90;;
37903;SDS011;23738;50.422;18.758;2023-06-14T08:57:51;2.90;;;2.70;;
37903;SDS011;23738;50.422;18.758;2023-06-14T09:00:21;2.60;;;2.40;;
37903;SDS011;23738;50.422;18.758;2023-06-14T09:02:50;3.40;;;3.10;;
37903;SDS011;23738;50.422;18.758;2023-06-14T09:05:22;3.10;;;2.80;;
37903;SDS011;23738;50.422;18.758;2023-06-14T09:07:49;4.40;;;4.00;;
37903;SDS011;23738;50.422;18.758;2023-06-14T09:10:18;4.00;;;3.50;;
37903;SDS011;23738;50.422;18.758;2023-06-14T09:12:46;4.20;;;3.80;;
37903;SDS011;23738;50.422;18.758;2023-06-14T09:15:14;3.40;;;3.10;;
37903;SDS011;23738;50.422;18.758;2023-06-14T09:17:42;3.70;;;3.40;;
37903;SDS011;23738;50.422;18.758;2023-06-14T09:20:10;4.50;;;4.10;;
37903;SDS011;23738;50.422;18.758;2023-06-14T09:22:39;5.00;;;4.00;;
37903;SDS011;23738;50.422;18.758;2023-06-14T09:25:07;4.50;;;4.10;;
37903;SDS011;23738;50.422;18.758;2023-06-14T09:27:36;5.90;;;4.10;;
37903;SDS011;23738;50.422;18.758;2023-06-14T09:30:06;4.40;;;4.00;;
37903;SDS011;23738;50.422;18.758;2023-06-14T09:32:36;4.10;;;3.70;;
37903;SDS011;23738;50.422;18.758;2023-06-14T09:35:06;4.20;;;3.80;;
37903;SDS011;23738;50.422;18.758;2023-06-14T09:37:34;3.70;;;3.40;;
37903;SDS011;23738;50.422;18.758;2023-06-14T09:40:04;4.50;;;4.20;;
37903;SDS011;23738;50.422;18.758;2023-06-14T09:42:33;4.50;;;4.10;;
37903;SDS011;23738;50.422;18.758;2023-06-14T09:45:02;4.70;;;4.30;;
37903;SDS011;23738;50.422;18.758;2023-06-14T09:47:30;4.50;;;4.10;;
37903;SDS011;23738;50.422;18.758;2023-06-14T09:49:57;3.60;;;3.30;;
37903;SDS011;23738;50.422;18.758;2023-06-14T09:52:26;6.00;;;4.00;;
37903;SDS011;23738;50.422;18.758;2023-06-14T09:54:54;4.30;;;3.90;;
37903;SDS011;23738;50.422;18.758;2023-06-14T09:57:40;4.70;;;3.90;;
37903;SDS011;23738;50.422;18.758;2023-06-14T10:00:09;4.20;;;3.80;;
37903;SDS011;23738;50.422;18.758;2023-06-14T10:02:39;4.00;;;3.70;;
37903;SDS011;23738;50.422;18.758;2023-06-14T10:05:14;4.00;;;3.70;;
37903;SDS011;23738;50.422;18.758;2023-06-14T10:07:44;4.30;;;3.90;;
37903;SDS011;23738;50.422;18.758;2023-06-14T10:10:19;5.00;;;4.60;;
37903;SDS011;23738;50.422;18.758;2023-06-14T10:12:46;5.70;;;5.20;;
37903;SDS011;23738;50.422;18.758;2023-06-14T10:15:15;5.40;;;5.00;;
37903;SDS011;23738;50.422;18.758;2023-06-14T10:17:47;6.60;;;6.00;;
37903;SDS011;23738;50.422;18.758;2023-06-14T10:20:21;8.70;;;7.90;;
37903;SDS011;23738;50.422;18.758;2023-06-14T10:22:56;8.60;;;7.80;;
37903;SDS011;23738;50.422;18.758;2023-06-14T10:25:28;7.90;;;6.00;;
37903;SDS011;23738;50.422;18.758;2023-06-14T10:28:05;10.90;;;9.80;;
37903;SDS011;23738;50.422;18.758;2023-06-14T10:33:34;6.00;;;5.40;;
37903;SDS011;23738;50.422;18.758;2023-06-14T10:36:24;5.50;;;5.00;;
37903;SDS011;23738;50.422;18.758;2023-06-14T10:39:00;5.30;;;4.90;;
37903;SDS011;23738;50.422;18.758;2023-06-14T10:41:31;5.30;;;4.80;;
37903;SDS011;23738;50.422;18.758;2023-06-14T10:44:11;5.30;;;4.90;;
37903;SDS011;23738;50.422;18.758;2023-06-14T10:46:59;4.40;;;4.00;;
37903;SDS011;23738;50.422;18.758;2023-06-14T10:49:37;5.20;;;4.70;;
37903;SDS011;23738;50.422;18.758;2023-06-14T10:52:08;5.60;;;5.20;;
37903;SDS011;23738;50.422;18.758;2023-06-14T10:55:04;6.10;;;5.00;;
37903;SDS011;23738;50.422;18.758;2023-06-14T10:57:35;5.30;;;4.80;;
37903;SDS011;23738;50.422;18.758;2023-06-14T11:00:03;4.30;;;4.00;;
37903;SDS011;23738;50.422;18.758;2023-06-14T11:02:46;5.00;;;4.10;;
37903;SDS011;23738;50.422;18.758;2023-06-14T11:05:25;5.00;;;4.60;;
37903;SDS011;23738;50.422;18.758;2023-06-14T11:08:02;5.00;;;3.80;;
37903;SDS011;23738;50.422;18.758;2023-06-14T11:10:44;4.60;;;4.20;;
37903;SDS011;23738;50.422;18.758;2023-06-14T11:13:12;4.90;;;4.10;;
37903;SDS011;23738;50.422;18.758;2023-06-14T11:15:44;4.40;;;4.00;;
37903;SDS011;23738;50.422;18.758;2023-06-14T11:18:12;5.20;;;4.80;;
37903;SDS011;23738;50.422;18.758;2023-06-14T11:20:42;4.90;;;4.50;;
37903;SDS011;23738;50.422;18.758;2023-06-14T11:23:12;5.60;;;4.80;;
37903;SDS011;23738;50.422;18.758;2023-06-14T11:25:39;6.30;;;5.20;;
37903;SDS011;23738;50.422;18.758;2023-06-14T11:28:07;5.00;;;4.10;;
37903;SDS011;23738;50.422;18.758;2023-06-14T11:30:34;3.70;;;3.40;;
37903;SDS011;23738;50.422;18.758;2023-06-14T11:33:01;4.20;;;3.80;;
37903;SDS011;23738;50.422;18.758;2023-06-14T11:35:29;4.50;;;3.50;;
37903;SDS011;23738;50.422;18.758;2023-06-14T11:37:56;4.10;;;3.70;;
37903;SDS011;23738;50.422;18.758;2023-06-14T11:40:24;4.00;;;3.60;;
37903;SDS011;23738;50.422;18.758;2023-06-14T11:42:58;3.30;;;3.10;;
37903;SDS011;23738;50.422;18.758;2023-06-14T11:45:26;3.80;;;3.50;;
37903;SDS011;23738;50.422;18.758;2023-06-14T11:47:55;5.50;;;3.60;;
37903;SDS011;23738;50.422;18.758;2023-06-14T11:50:23;3.70;;;2.90;;
37903;SDS011;23738;50.422;18.758;2023-06-14T11:52:54;2.60;;;2.40;;
37903;SDS011;23738;50.422;18.758;2023-06-14T11:55:22;2.80;;;2.60;;
37903;SDS011;23738;50.422;18.758;2023-06-14T11:57:49;2.70;;;2.30;;
37903;SDS011;23738;50.422;18.758;2023-06-14T12:00:18;2.50;;;2.30;;
37903;SDS011;23738;50.422;18.758;2023-06-14T12:02:52;7.20;;;2.20;;
37903;SDS011;23738;50.422;18.758;2023-06-14T12:05:21;2.40;;;2.20;;
37903;SDS011;23738;50.422;18.758;2023-06-14T12:07:50;3.20;;;2.40;;
37903;SDS011;23738;50.422;18.758;2023-06-14T12:10:24;5.50;;;2.30;;
37903;SDS011;23738;50.422;18.758;2023-06-14T12:12:56;1.90;;;1.70;;
37903;SDS011;23738;50.422;18.758;2023-06-14T12:15:24;3.10;;;2.40;;
37903;SDS011;23738;50.422;18.758;2023-06-14T12:17:54;4.70;;;2.60;;
37903;SDS011;23738;50.422;18.758;2023-06-14T12:20:21;3.00;;;2.80;;
37903;SDS011;23738;50.422;18.758;2023-06-14T12:22:52;2.70;;;2.50;;
37903;SDS011;23738;50.422;18.758;2023-06-14T12:25:26;2.70;;;2.50;;
37903;SDS011;23738;50.422;18.758;2023-06-14T12:27:56;3.10;;;2.80;;
37903;SDS011;23738;50.422;18.758;2023-06-14T12:30:24;2.80;;;2.50;;
37903;SDS011;23738;50.422;18.758;2023-06-14T12:32:51;2.90;;;2.40;;
37903;SDS011;23738;50.422;18.758;2023-06-14T12:35:18;3.40;;;2.70;;
37903;SDS011;23738;50.422;18.758;2023-06-14T12:37:46;3.30;;;2.90;;
37903;SDS011;23738;50.422;18.758;2023-06-14T12:40:13;4.70;;;3.50;;
37903;SDS011;23738;50.422;18.758;2023-06-14T12:42:41;4.00;;;3.00;;
37903;SDS011;23738;50.422;18.758;2023-06-14T12:45:09;4.40;;;3.00;;
37903;SDS011;23738;50.422;18.758;2023-06-14T12:47:38;4.30;;;3.00;;
37903;SDS011;23738;50.422;18.758;2023-06-14T12:50:07;4.00;;;3.10;;
37903;SDS011;23738;50.422;18.758;2023-06-14T12:52:34;4.60;;;3.20;;
37903;SDS011;23738;50.422;18.758;2023-06-14T12:55:02;3.60;;;2.90;;
37903;SDS011;23738;50.422;18.758;2023-06-14T12:57:30;3.30;;;2.80;;
37903;SDS011;23738;50.422;18.758;2023-06-14T13:00:02;5.30;;;3.00;;
37903;SDS011;23738;50.422;18.758;2023-06-14T13:02:31;3.40;;;2.50;;
37903;SDS011;23738;50.422;18.758;2023-06-14T13:04:58;3.70;;;2.90;;
37903;SDS011;23738;50.422;18.758;2023-06-14T13:07:26;3.10;;;2.70;;
37903;SDS011;23738;50.422;18.758;2023-06-14T13:09:53;2.60;;;2.40;;
37903;SDS011;23738;50.422;18.758;2023-06-14T13:12:20;4.70;;;2.20;;
37903;SDS011;23738;50.422;18.758;2023-06-14T13:14:48;2.80;;;2.60;;
37903;SDS011;23738;50.422;18.758;2023-06-14T13:17:15;4.80;;;2.40;;
37903;SDS011;23738;50.422;18.758;2023-06-14T13:19:42;3.20;;;2.50;;
37903;SDS011;23738;50.422;18.758;2023-06-14T13:22:10;2.90;;;2.50;;
37903;SDS011;23738;50.422;18.758;2023-06-14T13:24:37;2.90;;;2.30;;
37903;SDS011;23738;50.422;18.758;2023-06-14T13:27:05;4.40;;;2.40;;
37903;SDS011;23738;50.422;18.758;2023-06-14T13:29:32;2.50;;;2.30;;
37903;SDS011;23738;50.422;18.758;2023-06-14T13:32:01;2.70;;;2.30;;
37903;SDS011;23738;50.422;18.758;2023-06-14T13:34:29;2.60;;;2.30;;
37903;SDS011;23738;50.422;18.758;2023-06-14T13:36:56;2.70;;;2.50;;
37903;SDS011;23738;50.422;18.758;2023-06-14T13:39:25;2.40;;;2.20;;
37903;SDS011;23738;50.422;18.758;2023-06-14T13:41:52;3.10;;;2.30;;
37903;SDS011;23738;50.422;18.758;2023-06-14T13:44:20;2.40;;;2.20;;
37903;SDS011;23738;50.422;18.758;2023-06-14T13:46:47;3.20;;;2.30;;
37903;SDS011;23738;50.422;18.758;2023-06-14T13:49:14;2.20;;;2.10;;
37903;SDS011;23738;50.422;18.758;2023-06-14T13:51:42;2.30;;;2.00;;
37903;SDS011;23738;50.422;18.758;2023-06-14T13:54:11;2.30;;;2.10;;
37903;SDS011;23738;50.422;18.758;2023-06-14T13:56:40;2.40;;;2.20;;
37903;SDS011;23738;50.422;18.758;2023-06-14T13:59:07;2.90;;;2.70;;
37903;SDS011;23738;50.422;18.758;2023-06-14T14:01:35;3.00;;;2.60;;
37903;SDS011;23738;50.422;18.758;2023-06-14T14:04:02;2.70;;;2.50;;
37903;SDS011;23738;50.422;18.758;2023-06-14T14:06:30;5.60;;;2.80;;
37903;SDS011;23738;50.422;18.758;2023-06-14T14:08:58;2.90;;;2.70;;
37903;SDS011;23738;50.422;18.758;2023-06-14T14:11:26;2.80;;;2.40;;
37903;SDS011;23738;50.422;18.758;2023-06-14T14:13:53;2.80;;;2.50;;
37903;SDS011;23738;50.422;18.758;2023-06-14T14:16:21;2.80;;;2.60;;
37903;SDS011;23738;50.422;18.758;2023-06-14T14:18:48;3.00;;;2.50;;
37903;SDS011;23738;50.422;18.758;2023-06-14T14:21:16;2.50;;;2.00;;
37903;SDS011;23738;50.422;18.758;2023-06-14T14:23:43;3.70;;;2.30;;
37903;SDS011;23738;50.422;18.758;2023-06-14T14:26:11;2.10;;;1.90;;
37903;SDS011;23738;50.422;18.758;2023-06-14T14:28:38;2.40;;;2.20;;
37903;SDS011;23738;50.422;18.758;2023-06-14T14:31:05;2.70;;;2.30;;
37903;SDS011;23738;50.422;18.758;2023-06-14T14:33:33;2.20;;;1.90;;
37903;SDS011;23738;50.422;18.758;2023-06-14T14:36:00;5.30;;;2.40;;
37903;SDS011;23738;50.422;18.758;2023-06-14T14:38:29;2.40;;;2.20;;
37903;SDS011;23738;50.422;18.758;2023-06-14T14:40:57;2.60;;;2.00;;